sensor_id;sensor_type;location;lat;lon;timestamp;temperature;humidity
15203;DHT22;7702;51.046;5.184;2022-07-15T00:02:14;15.20;99.90
15203;DHT22;7702;51.046;5.184;2022-07-15T00:04:40;15.20;99.90
15203;DHT22;7702;51.046;5.184;2022-07-15T00:07:06;15.20;99.90
15203;DHT22;7702;51.046;5.184;2022-07-15T00:09:32;15.20;99.90
15203;DHT22;7702;51.046;5.184;2022-07-15T00:12:16;15.10;99.90
15203;DHT22;7702;51.046;5.184;2022-07-15T00:14:42;15.10;99.90
15203;DHT22;7702;51.046;5.184;2022-07-15T00:17:08;15.10;99.90
15203;DHT22;7702;51.046;5.184;2022-07-15T00:19:34;15.00;99.90
15203;DHT22;7702;51.046;5.184;2022-07-15T00:22:01;15.10;99.90
15203;DHT22;7702;51.046;5.184;2022-07-15T00:24:28;14.90;99.90
15203;DHT22;7702;51.046;5.184;2022-07-15T00:26:54;14.90;99.90
15203;DHT22;7702;51.046;5.184;2022-07-15T00:29:20;14.80;99.90
15203;DHT22;7702;51.046;5.184;2022-07-15T00:31:45;14.70;99.90
15203;DHT22;7702;51.046;5.184;2022-07-15T00:34:11;14.60;99.90
15203;DHT22;7702;51.046;5.184;2022-07-15T00:36:37;14.60;99.90
15203;DHT22;7702;51.046;5.184;2022-07-15T00:39:02;14.60;99.90
15203;DHT22;7702;51.046;5.184;2022-07-15T00:41:38;14.60;99.90
15203;DHT22;7702;51.046;5.184;2022-07-15T00:44:04;14.60;99.90
15203;DHT22;7702;51.046;5.184;2022-07-15T00:46:30;14.60;99.90
15203;DHT22;7702;51.046;5.184;2022-07-15T00:49:00;14.50;99.90
15203;DHT22;7702;51.046;5.184;2022-07-15T00:51:25;14.50;99.90
15203;DHT22;7702;51.046;5.184;2022-07-15T00:53:52;14.50;99.90
15203;DHT22;7702;51.046;5.184;2022-07-15T00:56:21;14.60;99.90
15203;DHT22;7702;51.046;5.184;2022-07-15T00:58:49;14.60;99.90
15203;DHT22;7702;51.046;5.184;2022-07-15T01:01:19;14.50;99.90
15203;DHT22;7702;51.046;5.184;2022-07-15T01:03:48;14.50;99.90
15203;DHT22;7702;51.046;5.184;2022-07-15T01:06:14;14.40;99.90
15203;DHT22;7702;51.046;5.184;2022-07-15T01:08:39;14.40;99.90
15203;DHT22;7702;51.046;5.184;2022-07-15T01:11:05;14.30;99.90
15203;DHT22;7702;51.046;5.184;2022-07-15T01:13:31;14.30;99.90
15203;DHT22;7702;51.046;5.184;2022-07-15T01:15:57;14.30;99.90
15203;DHT22;7702;51.046;5.184;2022-07-15T01:18:23;14.20;99.90
15203;DHT22;7702;51.046;5.184;2022-07-15T01:20:48;14.20;99.90
15203;DHT22;7702;51.046;5.184;2022-07-15T01:23:17;14.10;99.90
15203;DHT22;7702;51.046;5.184;2022-07-15T01:25:43;14.10;99.90
15203;DHT22;7702;51.046;5.184;2022-07-15T01:28:10;14.10;99.90
15203;DHT22;7702;51.046;5.184;2022-07-15T01:30:37;14.10;99.90
15203;DHT22;7702;51.046;5.184;2022-07-15T01:33:03;14.10;99.90
15203;DHT22;7702;51.046;5.184;2022-07-15T01:35:29;14.10;99.90
15203;DHT22;7702;51.046;5.184;2022-07-15T01:37:55;14.10;99.90
15203;DHT22;7702;51.046;5.184;2022-07-15T01:40:21;14.00;99.90
15203;DHT22;7702;51.046;5.184;2022-07-15T01:42:47;14.00;99.90
15203;DHT22;7702;51.046;5.184;2022-07-15T01:45:14;13.90;99.90
15203;DHT22;7702;51.046;5.184;2022-07-15T01:47:44;13.90;99.90
15203;DHT22;7702;51.046;5.184;2022-07-15T01:50:11;13.90;99.90
15203;DHT22;7702;51.046;5.184;2022-07-15T01:52:36;13.80;99.90
15203;DHT22;7702;51.046;5.184;2022-07-15T01:55:03;13.80;99.90
15203;DHT22;7702;51.046;5.184;2022-07-15T01:57:30;13.70;99.90
15203;DHT22;7702;51.046;5.184;2022-07-15T01:59:55;13.70;99.90
15203;DHT22;7702;51.046;5.184;2022-07-15T02:02:21;13.70;99.90
15203;DHT22;7702;51.046;5.184;2022-07-15T02:04:47;13.80;99.90
15203;DHT22;7702;51.046;5.184;2022-07-15T02:07:13;13.80;99.90
15203;DHT22;7702;51.046;5.184;2022-07-15T02:09:39;13.80;99.90
15203;DHT22;7702;51.046;5.184;2022-07-15T02:12:05;13.80;99.90
15203;DHT22;7702;51.046;5.184;2022-07-15T02:14:31;13.80;99.90
15203;DHT22;7702;51.046;5.184;2022-07-15T02:16:59;13.70;99.90
15203;DHT22;7702;51.046;5.184;2022-07-15T02:19:25;13.70;99.90
15203;DHT22;7702;51.046;5.184;2022-07-15T02:21:51;13.60;99.90
15203;DHT22;7702;51.046;5.184;2022-07-15T02:24:17;13.60;99.90
15203;DHT22;7702;51.046;5.184;2022-07-15T02:26:48;13.60;99.90
15203;DHT22;7702;51.046;5.184;2022-07-15T02:29:15;13.50;99.90
15203;DHT22;7702;51.046;5.184;2022-07-15T02:31:41;13.40;99.90
15203;DHT22;7702;51.046;5.184;2022-07-15T02:34:07;13.30;99.90
15203;DHT22;7702;51.046;5.184;2022-07-15T02:36:33;13.20;99.90
15203;DHT22;7702;51.046;5.184;2022-07-15T02:38:59;13.30;99.90
15203;DHT22;7702;51.046;5.184;2022-07-15T02:41:25;13.20;99.90
15203;DHT22;7702;51.046;5.184;2022-07-15T02:43:51;13.10;99.90
15203;DHT22;7702;51.046;5.184;2022-07-15T02:46:17;13.10;99.90
15203;DHT22;7702;51.046;5.184;2022-07-15T02:48:43;13.10;99.90
15203;DHT22;7702;51.046;5.184;2022-07-15T02:51:09;13.00;99.90
15203;DHT22;7702;51.046;5.184;2022-07-15T02:53:35;13.00;99.90
15203;DHT22;7702;51.046;5.184;2022-07-15T02:56:01;12.90;99.90
15203;DHT22;7702;51.046;5.184;2022-07-15T02:58:29;12.80;99.90
15203;DHT22;7702;51.046;5.184;2022-07-15T03:00:56;12.90;99.90
15203;DHT22;7702;51.046;5.184;2022-07-15T03:03:22;12.90;99.90
15203;DHT22;7702;51.046;5.184;2022-07-15T03:05:48;12.80;99.90
15203;DHT22;7702;51.046;5.184;2022-07-15T03:08:15;12.90;99.90
15203;DHT22;7702;51.046;5.184;2022-07-15T03:10:41;12.90;99.90
15203;DHT22;7702;51.046;5.184;2022-07-15T03:13:07;12.90;99.90
15203;DHT22;7702;51.046;5.184;2022-07-15T03:15:33;12.90;99.90
15203;DHT22;7702;51.046;5.184;2022-07-15T03:17:59;12.80;99.90
15203;DHT22;7702;51.046;5.184;2022-07-15T03:20:25;12.80;99.90
15203;DHT22;7702;51.046;5.184;2022-07-15T03:22:51;12.70;99.90
15203;DHT22;7702;51.046;5.184;2022-07-15T03:25:17;12.70;99.90
15203;DHT22;7702;51.046;5.184;2022-07-15T03:27:42;12.70;99.90
15203;DHT22;7702;51.046;5.184;2022-07-15T03:30:09;12.60;99.90
15203;DHT22;7702;51.046;5.184;2022-07-15T03:32:35;12.60;99.90
15203;DHT22;7702;51.046;5.184;2022-07-15T03:35:01;12.60;99.90
15203;DHT22;7702;51.046;5.184;2022-07-15T03:37:26;12.60;99.90
15203;DHT22;7702;51.046;5.184;2022-07-15T03:39:52;12.60;99.90
15203;DHT22;7702;51.046;5.184;2022-07-15T03:42:18;12.60;99.90
15203;DHT22;7702;51.046;5.184;2022-07-15T03:44:44;12.60;99.90
15203;DHT22;7702;51.046;5.184;2022-07-15T03:47:10;12.70;99.90
15203;DHT22;7702;51.046;5.184;2022-07-15T03:49:35;12.70;99.90
15203;DHT22;7702;51.046;5.184;2022-07-15T03:52:01;12.70;99.90
15203;DHT22;7702;51.046;5.184;2022-07-15T03:54:27;12.60;99.90
15203;DHT22;7702;51.046;5.184;2022-07-15T03:56:52;12.60;99.90
15203;DHT22;7702;51.046;5.184;2022-07-15T03:59:19;12.70;99.90
15203;DHT22;7702;51.046;5.184;2022-07-15T04:01:46;12.70;99.90
15203;DHT22;7702;51.046;5.184;2022-07-15T04:04:14;12.70;99.90
15203;DHT22;7702;51.046;5.184;2022-07-15T04:06:39;12.70;99.90
15203;DHT22;7702;51.046;5.184;2022-07-15T04:09:06;12.70;99.90
15203;DHT22;7702;51.046;5.184;2022-07-15T04:11:33;12.60;99.90
15203;DHT22;7702;51.046;5.184;2022-07-15T04:13:59;12.60;99.90
15203;DHT22;7702;51.046;5.184;2022-07-15T04:16:24;12.70;99.90
15203;DHT22;7702;51.046;5.184;2022-07-15T04:18:50;12.80;99.90
15203;DHT22;7702;51.046;5.184;2022-07-15T04:21:17;12.80;99.90
15203;DHT22;7702;51.046;5.184;2022-07-15T04:23:43;12.80;99.90
15203;DHT22;7702;51.046;5.184;2022-07-15T04:26:08;12.90;99.90
15203;DHT22;7702;51.046;5.184;2022-07-15T04:28:34;13.00;99.90
15203;DHT22;7702;51.046;5.184;2022-07-15T04:31:00;13.00;99.90
15203;DHT22;7702;51.046;5.184;2022-07-15T04:33:26;13.00;99.90
15203;DHT22;7702;51.046;5.184;2022-07-15T04:35:51;13.00;99.90
15203;DHT22;7702;51.046;5.184;2022-07-15T04:38:17;13.10;99.90
15203;DHT22;7702;51.046;5.184;2022-07-15T04:40:44;13.10;99.90
15203;DHT22;7702;51.046;5.184;2022-07-15T04:43:09;13.10;99.90
15203;DHT22;7702;51.046;5.184;2022-07-15T04:45:35;13.10;99.90
15203;DHT22;7702;51.046;5.184;2022-07-15T04:48:01;13.20;99.90
15203;DHT22;7702;51.046;5.184;2022-07-15T04:50:27;13.30;99.90
15203;DHT22;7702;51.046;5.184;2022-07-15T04:53:11;13.30;99.90
15203;DHT22;7702;51.046;5.184;2022-07-15T04:55:37;13.30;99.90
15203;DHT22;7702;51.046;5.184;2022-07-15T04:58:03;13.40;99.90
15203;DHT22;7702;51.046;5.184;2022-07-15T05:00:29;13.50;99.90
15203;DHT22;7702;51.046;5.184;2022-07-15T05:02:55;13.50;99.90
15203;DHT22;7702;51.046;5.184;2022-07-15T05:05:21;13.50;99.90
15203;DHT22;7702;51.046;5.184;2022-07-15T05:07:47;13.40;99.90
15203;DHT22;7702;51.046;5.184;2022-07-15T05:10:12;13.50;99.90
15203;DHT22;7702;51.046;5.184;2022-07-15T05:12:38;13.50;99.90
15203;DHT22;7702;51.046;5.184;2022-07-15T05:15:05;13.50;99.90
15203;DHT22;7702;51.046;5.184;2022-07-15T05:17:31;13.60;99.90
15203;DHT22;7702;51.046;5.184;2022-07-15T05:19:56;13.70;99.90
15203;DHT22;7702;51.046;5.184;2022-07-15T05:22:22;13.80;99.90
15203;DHT22;7702;51.046;5.184;2022-07-15T05:24:49;13.90;99.90
15203;DHT22;7702;51.046;5.184;2022-07-15T05:27:14;13.90;99.90
15203;DHT22;7702;51.046;5.184;2022-07-15T05:29:41;13.90;99.90
15203;DHT22;7702;51.046;5.184;2022-07-15T05:32:07;14.00;99.90
15203;DHT22;7702;51.046;5.184;2022-07-15T05:34:32;14.10;99.90
15203;DHT22;7702;51.046;5.184;2022-07-15T05:36:58;14.20;99.90
15203;DHT22;7702;51.046;5.184;2022-07-15T05:39:24;14.30;99.90
15203;DHT22;7702;51.046;5.184;2022-07-15T05:41:50;14.30;99.90
15203;DHT22;7702;51.046;5.184;2022-07-15T05:44:16;14.50;99.90
15203;DHT22;7702;51.046;5.184;2022-07-15T05:46:42;14.60;99.90
15203;DHT22;7702;51.046;5.184;2022-07-15T05:49:08;14.70;99.90
15203;DHT22;7702;51.046;5.184;2022-07-15T05:51:33;14.90;99.90
15203;DHT22;7702;51.046;5.184;2022-07-15T05:53:59;15.10;99.90
15203;DHT22;7702;51.046;5.184;2022-07-15T05:56:25;15.20;99.90
15203;DHT22;7702;51.046;5.184;2022-07-15T05:58:51;15.40;99.90
15203;DHT22;7702;51.046;5.184;2022-07-15T06:01:16;15.60;99.90
15203;DHT22;7702;51.046;5.184;2022-07-15T06:03:42;15.90;99.90
15203;DHT22;7702;51.046;5.184;2022-07-15T06:06:08;16.00;99.90
15203;DHT22;7702;51.046;5.184;2022-07-15T06:08:34;16.00;99.90
15203;DHT22;7702;51.046;5.184;2022-07-15T06:11:00;16.00;99.90
15203;DHT22;7702;51.046;5.184;2022-07-15T06:13:26;16.30;99.90
15203;DHT22;7702;51.046;5.184;2022-07-15T06:15:52;16.40;99.90
15203;DHT22;7702;51.046;5.184;2022-07-15T06:18:18;16.60;99.90
15203;DHT22;7702;51.046;5.184;2022-07-15T06:20:45;16.50;99.90
15203;DHT22;7702;51.046;5.184;2022-07-15T06:23:11;16.70;99.90
15203;DHT22;7702;51.046;5.184;2022-07-15T06:25:36;16.90;99.90
15203;DHT22;7702;51.046;5.184;2022-07-15T06:28:02;17.10;99.90
15203;DHT22;7702;51.046;5.184;2022-07-15T06:30:29;17.20;99.90
15203;DHT22;7702;51.046;5.184;2022-07-15T06:32:56;17.40;99.90
15203;DHT22;7702;51.046;5.184;2022-07-15T06:35:22;17.40;99.90
15203;DHT22;7702;51.046;5.184;2022-07-15T06:37:48;17.30;99.90
15203;DHT22;7702;51.046;5.184;2022-07-15T06:40:14;17.50;99.90
15203;DHT22;7702;51.046;5.184;2022-07-15T06:42:39;17.90;99.90
15203;DHT22;7702;51.046;5.184;2022-07-15T06:45:06;17.90;99.90
15203;DHT22;7702;51.046;5.184;2022-07-15T06:47:31;17.90;99.90
15203;DHT22;7702;51.046;5.184;2022-07-15T06:50:00;17.80;99.90
15203;DHT22;7702;51.046;5.184;2022-07-15T06:52:25;17.80;99.90
15203;DHT22;7702;51.046;5.184;2022-07-15T06:54:51;18.10;99.90
15203;DHT22;7702;51.046;5.184;2022-07-15T06:57:17;18.50;99.90
15203;DHT22;7702;51.046;5.184;2022-07-15T06:59:43;18.50;99.90
15203;DHT22;7702;51.046;5.184;2022-07-15T07:02:09;18.50;99.90
15203;DHT22;7702;51.046;5.184;2022-07-15T07:04:35;18.30;99.90
15203;DHT22;7702;51.046;5.184;2022-07-15T07:07:00;18.60;99.90
15203;DHT22;7702;51.046;5.184;2022-07-15T07:09:26;18.80;99.90
15203;DHT22;7702;51.046;5.184;2022-07-15T07:11:52;19.00;99.90
15203;DHT22;7702;51.046;5.184;2022-07-15T07:14:18;18.50;99.90
15203;DHT22;7702;51.046;5.184;2022-07-15T07:16:44;18.20;99.90
15203;DHT22;7702;51.046;5.184;2022-07-15T07:19:11;18.30;99.90
15203;DHT22;7702;51.046;5.184;2022-07-15T07:21:39;18.90;99.90
15203;DHT22;7702;51.046;5.184;2022-07-15T07:24:05;19.20;99.90
15203;DHT22;7702;51.046;5.184;2022-07-15T07:26:32;19.40;99.90
15203;DHT22;7702;51.046;5.184;2022-07-15T07:28:59;19.60;99.90
15203;DHT22;7702;51.046;5.184;2022-07-15T07:31:24;19.40;99.90
15203;DHT22;7702;51.046;5.184;2022-07-15T07:33:55;19.50;99.90
15203;DHT22;7702;51.046;5.184;2022-07-15T07:36:21;19.40;99.90
15203;DHT22;7702;51.046;5.184;2022-07-15T07:38:47;19.20;99.90
15203;DHT22;7702;51.046;5.184;2022-07-15T07:41:13;19.30;99.90
15203;DHT22;7702;51.046;5.184;2022-07-15T07:43:39;19.80;99.90
15203;DHT22;7702;51.046;5.184;2022-07-15T07:46:05;19.70;99.90
15203;DHT22;7702;51.046;5.184;2022-07-15T07:48:30;19.20;99.90
15203;DHT22;7702;51.046;5.184;2022-07-15T07:50:57;19.40;99.90
15203;DHT22;7702;51.046;5.184;2022-07-15T07:53:24;20.40;99.90
15203;DHT22;7702;51.046;5.184;2022-07-15T07:55:50;20.70;99.90
15203;DHT22;7702;51.046;5.184;2022-07-15T07:58:16;21.30;99.90
15203;DHT22;7702;51.046;5.184;2022-07-15T08:00:43;21.90;99.90
15203;DHT22;7702;51.046;5.184;2022-07-15T08:03:10;21.20;99.90
15203;DHT22;7702;51.046;5.184;2022-07-15T08:05:35;20.50;99.90
15203;DHT22;7702;51.046;5.184;2022-07-15T08:08:17;19.60;99.90
15203;DHT22;7702;51.046;5.184;2022-07-15T08:10:45;19.30;99.90
15203;DHT22;7702;51.046;5.184;2022-07-15T08:13:11;19.20;99.90
15203;DHT22;7702;51.046;5.184;2022-07-15T08:15:39;18.90;99.90
15203;DHT22;7702;51.046;5.184;2022-07-15T08:18:05;18.70;99.90
15203;DHT22;7702;51.046;5.184;2022-07-15T08:20:31;18.60;99.90
15203;DHT22;7702;51.046;5.184;2022-07-15T08:22:58;19.10;99.90
15203;DHT22;7702;51.046;5.184;2022-07-15T08:25:32;20.00;99.90
15203;DHT22;7702;51.046;5.184;2022-07-15T08:27:58;20.30;99.90
15203;DHT22;7702;51.046;5.184;2022-07-15T08:30:28;21.00;99.90
15203;DHT22;7702;51.046;5.184;2022-07-15T08:32:55;21.80;99.90
15203;DHT22;7702;51.046;5.184;2022-07-15T08:35:24;22.40;99.90
15203;DHT22;7702;51.046;5.184;2022-07-15T08:37:50;22.90;99.90
15203;DHT22;7702;51.046;5.184;2022-07-15T08:40:16;23.00;99.90
15203;DHT22;7702;51.046;5.184;2022-07-15T08:42:43;23.10;99.90
15203;DHT22;7702;51.046;5.184;2022-07-15T08:45:12;23.20;99.90
15203;DHT22;7702;51.046;5.184;2022-07-15T08:47:43;23.30;99.90
15203;DHT22;7702;51.046;5.184;2022-07-15T08:50:13;23.50;99.90
15203;DHT22;7702;51.046;5.184;2022-07-15T08:52:40;23.40;99.90
15203;DHT22;7702;51.046;5.184;2022-07-15T08:55:08;23.50;99.90
15203;DHT22;7702;51.046;5.184;2022-07-15T08:57:34;23.90;99.90
15203;DHT22;7702;51.046;5.184;2022-07-15T09:00:00;23.10;99.90
15203;DHT22;7702;51.046;5.184;2022-07-15T09:02:26;22.00;99.90
15203;DHT22;7702;51.046;5.184;2022-07-15T09:05:21;22.30;99.90
15203;DHT22;7702;51.046;5.184;2022-07-15T09:07:57;22.20;99.90
15203;DHT22;7702;51.046;5.184;2022-07-15T09:13:10;21.10;99.90
15203;DHT22;7702;51.046;5.184;2022-07-15T09:15:38;21.30;99.90
15203;DHT22;7702;51.046;5.184;2022-07-15T09:18:13;22.00;99.90
15203;DHT22;7702;51.046;5.184;2022-07-15T09:20:41;21.50;99.90
15203;DHT22;7702;51.046;5.184;2022-07-15T09:23:07;21.60;99.90
15203;DHT22;7702;51.046;5.184;2022-07-15T09:25:34;22.40;99.90
15203;DHT22;7702;51.046;5.184;2022-07-15T09:28:02;22.70;99.90
15203;DHT22;7702;51.046;5.184;2022-07-15T09:30:36;23.20;99.90
15203;DHT22;7702;51.046;5.184;2022-07-15T09:33:25;23.00;99.90
15203;DHT22;7702;51.046;5.184;2022-07-15T09:36:23;22.80;99.90
15203;DHT22;7702;51.046;5.184;2022-07-15T09:38:58;22.10;99.90
15203;DHT22;7702;51.046;5.184;2022-07-15T09:41:36;21.40;99.90
15203;DHT22;7702;51.046;5.184;2022-07-15T09:44:09;21.50;99.90
15203;DHT22;7702;51.046;5.184;2022-07-15T09:46:58;22.20;99.90
15203;DHT22;7702;51.046;5.184;2022-07-15T09:51:58;24.50;99.90
15203;DHT22;7702;51.046;5.184;2022-07-15T09:54:31;24.80;99.90
15203;DHT22;7702;51.046;5.184;2022-07-15T09:56:59;23.80;99.90
15203;DHT22;7702;51.046;5.184;2022-07-15T09:59:25;23.10;99.90
15203;DHT22;7702;51.046;5.184;2022-07-15T10:01:52;23.20;99.90
15203;DHT22;7702;51.046;5.184;2022-07-15T10:04:20;24.10;99.90
15203;DHT22;7702;51.046;5.184;2022-07-15T10:06:48;25.00;99.90
15203;DHT22;7702;51.046;5.184;2022-07-15T10:09:15;24.50;99.90
15203;DHT22;7702;51.046;5.184;2022-07-15T10:11:49;24.20;99.90
15203;DHT22;7702;51.046;5.184;2022-07-15T10:14:30;23.90;99.90
15203;DHT22;7702;51.046;5.184;2022-07-15T10:17:19;24.60;99.90
15203;DHT22;7702;51.046;5.184;2022-07-15T10:28:13;26.10;99.80
15203;DHT22;7702;51.046;5.184;2022-07-15T10:30:40;25.90;97.00
15203;DHT22;7702;51.046;5.184;2022-07-15T10:33:10;25.10;97.00
15203;DHT22;7702;51.046;5.184;2022-07-15T10:43:48;25.40;99.90
15203;DHT22;7702;51.046;5.184;2022-07-15T10:48:47;26.40;99.90
15203;DHT22;7702;51.046;5.184;2022-07-15T10:56:33;27.40;93.10
15203;DHT22;7702;51.046;5.184;2022-07-15T10:59:12;27.20;91.70
15203;DHT22;7702;51.046;5.184;2022-07-15T11:01:43;27.90;90.00
15203;DHT22;7702;51.046;5.184;2022-07-15T11:04:27;27.90;87.40
15203;DHT22;7702;51.046;5.184;2022-07-15T11:09:53;28.60;88.90
15203;DHT22;7702;51.046;5.184;2022-07-15T11:14:57;25.90;90.30
15203;DHT22;7702;51.046;5.184;2022-07-15T11:19:57;24.80;94.80
15203;DHT22;7702;51.046;5.184;2022-07-15T11:22:25;24.50;97.20
15203;DHT22;7702;51.046;5.184;2022-07-15T11:24:52;25.20;96.70
15203;DHT22;7702;51.046;5.184;2022-07-15T11:27:19;25.50;96.70
15203;DHT22;7702;51.046;5.184;2022-07-15T11:29:51;25.90;96.70
15203;DHT22;7702;51.046;5.184;2022-07-15T11:32:20;26.40;96.70
15203;DHT22;7702;51.046;5.184;2022-07-15T11:34:50;26.20;94.10
15203;DHT22;7702;51.046;5.184;2022-07-15T11:37:16;25.10;93.90
15203;DHT22;7702;51.046;5.184;2022-07-15T11:39:50;24.70;96.20
15203;DHT22;7702;51.046;5.184;2022-07-15T11:42:23;24.90;95.20
15203;DHT22;7702;51.046;5.184;2022-07-15T11:45:09;25.40;95.90
15203;DHT22;7702;51.046;5.184;2022-07-15T11:47:35;26.80;96.50
15203;DHT22;7702;51.046;5.184;2022-07-15T11:50:15;27.80;88.40
15203;DHT22;7702;51.046;5.184;2022-07-15T11:52:40;28.40;89.80
15203;DHT22;7702;51.046;5.184;2022-07-15T11:55:06;28.60;87.50
15203;DHT22;7702;51.046;5.184;2022-07-15T11:57:32;28.70;80.70
15203;DHT22;7702;51.046;5.184;2022-07-15T11:59:59;28.00;85.30
15203;DHT22;7702;51.046;5.184;2022-07-15T12:02:27;26.70;87.30
15203;DHT22;7702;51.046;5.184;2022-07-15T12:05:04;26.80;92.20
15203;DHT22;7702;51.046;5.184;2022-07-15T12:07:40;27.90;84.50
15203;DHT22;7702;51.046;5.184;2022-07-15T12:10:06;28.50;84.20
15203;DHT22;7702;51.046;5.184;2022-07-15T12:12:32;27.50;79.00
15203;DHT22;7702;51.046;5.184;2022-07-15T12:14:58;27.10;88.70
15203;DHT22;7702;51.046;5.184;2022-07-15T12:17:24;28.30;83.50
15203;DHT22;7702;51.046;5.184;2022-07-15T12:19:51;27.40;83.70
15203;DHT22;7702;51.046;5.184;2022-07-15T12:22:19;26.60;86.20
15203;DHT22;7702;51.046;5.184;2022-07-15T12:24:49;26.20;89.00
15203;DHT22;7702;51.046;5.184;2022-07-15T12:27:17;26.20;89.20
15203;DHT22;7702;51.046;5.184;2022-07-15T12:29:43;25.30;90.00
15203;DHT22;7702;51.046;5.184;2022-07-15T12:32:11;24.70;92.50
15203;DHT22;7702;51.046;5.184;2022-07-15T12:37:22;24.40;94.10
15203;DHT22;7702;51.046;5.184;2022-07-15T12:42:29;24.80;95.30
15203;DHT22;7702;51.046;5.184;2022-07-15T12:45:10;25.40;95.00
15203;DHT22;7702;51.046;5.184;2022-07-15T12:47:37;26.70;92.70
15203;DHT22;7702;51.046;5.184;2022-07-15T12:50:04;27.90;85.90
15203;DHT22;7702;51.046;5.184;2022-07-15T12:54:57;28.20;81.20
15203;DHT22;7702;51.046;5.184;2022-07-15T12:57:35;27.60;85.70
15203;DHT22;7702;51.046;5.184;2022-07-15T13:00:05;27.00;84.40
15203;DHT22;7702;51.046;5.184;2022-07-15T13:02:46;25.90;84.40
15203;DHT22;7702;51.046;5.184;2022-07-15T13:05:18;24.90;90.90
15203;DHT22;7702;51.046;5.184;2022-07-15T13:07:43;24.90;93.10
15203;DHT22;7702;51.046;5.184;2022-07-15T13:10:09;25.30;92.70
15203;DHT22;7702;51.046;5.184;2022-07-15T13:12:35;25.10;93.10
15203;DHT22;7702;51.046;5.184;2022-07-15T13:15:00;24.80;94.20
15203;DHT22;7702;51.046;5.184;2022-07-15T13:17:26;25.10;94.30
15203;DHT22;7702;51.046;5.184;2022-07-15T13:19:51;25.40;92.40
15203;DHT22;7702;51.046;5.184;2022-07-15T13:22:17;26.00;94.20
15203;DHT22;7702;51.046;5.184;2022-07-15T13:24:43;26.00;90.80
15203;DHT22;7702;51.046;5.184;2022-07-15T13:27:08;26.80;90.80
15203;DHT22;7702;51.046;5.184;2022-07-15T13:29:36;28.00;88.80
15203;DHT22;7702;51.046;5.184;2022-07-15T13:32:02;28.90;81.10
15203;DHT22;7702;51.046;5.184;2022-07-15T13:34:27;28.10;82.10
15203;DHT22;7702;51.046;5.184;2022-07-15T13:36:53;28.30;87.30
15203;DHT22;7702;51.046;5.184;2022-07-15T13:39:19;28.60;82.30
15203;DHT22;7702;51.046;5.184;2022-07-15T13:41:45;29.80;75.90
15203;DHT22;7702;51.046;5.184;2022-07-15T13:44:10;29.80;73.40
15203;DHT22;7702;51.046;5.184;2022-07-15T13:46:36;28.20;78.10
15203;DHT22;7702;51.046;5.184;2022-07-15T13:49:02;27.40;81.00
15203;DHT22;7702;51.046;5.184;2022-07-15T13:51:28;27.00;80.00
15203;DHT22;7702;51.046;5.184;2022-07-15T13:53:55;28.10;84.00
15203;DHT22;7702;51.046;5.184;2022-07-15T13:56:21;28.00;77.90
15203;DHT22;7702;51.046;5.184;2022-07-15T13:58:47;27.30;83.30
15203;DHT22;7702;51.046;5.184;2022-07-15T14:01:14;28.20;82.90
15203;DHT22;7702;51.046;5.184;2022-07-15T14:03:39;28.00;77.00
15203;DHT22;7702;51.046;5.184;2022-07-15T14:06:05;27.60;83.70
15203;DHT22;7702;51.046;5.184;2022-07-15T14:08:31;28.30;85.20
15203;DHT22;7702;51.046;5.184;2022-07-15T14:10:57;28.70;79.20
15203;DHT22;7702;51.046;5.184;2022-07-15T14:13:23;28.30;78.10
15203;DHT22;7702;51.046;5.184;2022-07-15T14:15:49;28.20;76.80
15203;DHT22;7702;51.046;5.184;2022-07-15T14:18:15;27.90;77.70
15203;DHT22;7702;51.046;5.184;2022-07-15T14:20:41;27.00;78.60
15203;DHT22;7702;51.046;5.184;2022-07-15T14:23:07;25.90;85.70
15203;DHT22;7702;51.046;5.184;2022-07-15T14:25:33;25.30;87.30
15203;DHT22;7702;51.046;5.184;2022-07-15T14:27:59;24.80;89.70
15203;DHT22;7702;51.046;5.184;2022-07-15T14:30:24;24.90;91.30
15203;DHT22;7702;51.046;5.184;2022-07-15T14:32:50;25.00;91.60
15203;DHT22;7702;51.046;5.184;2022-07-15T14:35:16;26.00;92.40
15203;DHT22;7702;51.046;5.184;2022-07-15T14:37:41;26.80;84.60
15203;DHT22;7702;51.046;5.184;2022-07-15T14:40:08;27.50;82.10
15203;DHT22;7702;51.046;5.184;2022-07-15T14:42:34;26.40;80.40
15203;DHT22;7702;51.046;5.184;2022-07-15T14:45:00;26.10;86.20
15203;DHT22;7702;51.046;5.184;2022-07-15T14:47:26;26.40;84.00
15203;DHT22;7702;51.046;5.184;2022-07-15T14:49:52;25.40;84.80
15203;DHT22;7702;51.046;5.184;2022-07-15T14:52:18;25.40;90.30
15203;DHT22;7702;51.046;5.184;2022-07-15T14:54:44;24.90;90.90
15203;DHT22;7702;51.046;5.184;2022-07-15T14:57:10;24.80;90.60
15203;DHT22;7702;51.046;5.184;2022-07-15T14:59:36;24.60;91.40
15203;DHT22;7702;51.046;5.184;2022-07-15T15:02:06;24.50;91.10
15203;DHT22;7702;51.046;5.184;2022-07-15T15:04:32;24.10;93.00
15203;DHT22;7702;51.046;5.184;2022-07-15T15:06:58;24.20;96.30
15203;DHT22;7702;51.046;5.184;2022-07-15T15:09:24;24.60;91.80
15203;DHT22;7702;51.046;5.184;2022-07-15T15:11:50;25.40;91.80
15203;DHT22;7702;51.046;5.184;2022-07-15T15:14:15;25.90;88.20
15203;DHT22;7702;51.046;5.184;2022-07-15T15:16:41;26.90;92.10
15203;DHT22;7702;51.046;5.184;2022-07-15T15:19:07;28.20;87.80
15203;DHT22;7702;51.046;5.184;2022-07-15T15:21:32;30.00;81.70
15203;DHT22;7702;51.046;5.184;2022-07-15T15:23:58;28.50;73.50
15203;DHT22;7702;51.046;5.184;2022-07-15T15:26:24;27.30;76.70
15203;DHT22;7702;51.046;5.184;2022-07-15T15:28:54;26.70;78.70
15203;DHT22;7702;51.046;5.184;2022-07-15T15:31:21;26.20;79.20
15203;DHT22;7702;51.046;5.184;2022-07-15T15:33:47;25.20;84.90
15203;DHT22;7702;51.046;5.184;2022-07-15T15:36:14;24.70;90.30
15203;DHT22;7702;51.046;5.184;2022-07-15T15:38:39;24.50;91.70
15203;DHT22;7702;51.046;5.184;2022-07-15T15:41:06;24.50;92.50
15203;DHT22;7702;51.046;5.184;2022-07-15T15:43:31;24.50;92.20
15203;DHT22;7702;51.046;5.184;2022-07-15T15:45:57;25.00;93.30
15203;DHT22;7702;51.046;5.184;2022-07-15T15:48:23;25.00;92.50
15203;DHT22;7702;51.046;5.184;2022-07-15T15:50:49;25.00;92.00
15203;DHT22;7702;51.046;5.184;2022-07-15T15:53:15;24.80;93.00
15203;DHT22;7702;51.046;5.184;2022-07-15T15:55:41;25.00;93.00
15203;DHT22;7702;51.046;5.184;2022-07-15T15:58:06;24.80;91.80
15203;DHT22;7702;51.046;5.184;2022-07-15T16:00:32;24.40;93.70
15203;DHT22;7702;51.046;5.184;2022-07-15T16:03:00;24.50;94.00
15203;DHT22;7702;51.046;5.184;2022-07-15T16:05:26;24.60;97.10
15203;DHT22;7702;51.046;5.184;2022-07-15T16:07:52;26.30;95.20
15203;DHT22;7702;51.046;5.184;2022-07-15T16:10:18;26.90;90.60
15203;DHT22;7702;51.046;5.184;2022-07-15T16:12:44;26.50;89.20
15203;DHT22;7702;51.046;5.184;2022-07-15T16:15:10;26.90;86.50
15203;DHT22;7702;51.046;5.184;2022-07-15T16:17:37;26.90;91.20
15203;DHT22;7702;51.046;5.184;2022-07-15T16:20:04;26.70;87.50
15203;DHT22;7702;51.046;5.184;2022-07-15T16:22:30;26.70;88.30
15203;DHT22;7702;51.046;5.184;2022-07-15T16:25:15;26.80;86.10
15203;DHT22;7702;51.046;5.184;2022-07-15T16:27:40;26.70;87.00
15203;DHT22;7702;51.046;5.184;2022-07-15T16:30:08;25.90;90.20
15203;DHT22;7702;51.046;5.184;2022-07-15T16:32:35;25.80;88.80